Time;durP1;ratioP1;P1;durP2;ratioP2;P2;SDS_P1;SDS_P2;PMS_P1;PMS_P2;Temp;Humidity;BMP_temperature;BMP_pressure;BME280_temperature;BME280_humidity;BME280_pressure;Samples;Min_cycle;Max_cycle;Signal;HPM_P1;HPM_P2
2022/12/15 00:39:25;;;;;;;;;34.75;30.50;;;;;6.84;63.41;98301.59;4997752;28;8829;-78
2022/12/15 00:41:54;;;;;;;;;33.25;30.50;;;;;6.72;63.64;98299.94;5012326;28;8880;-77
2022/12/15 00:44:22;;;;;;;;;31.25;27.00;;;;;6.65;63.29;98298.25;5022547;28;8944;-77
2022/12/15 00:46:54;;;;;;;;;31.50;29.50;;;;;6.60;63.91;98308.66;5061590;28;8870;-77
2022/12/15 01:20:17;;;;;;;;;27.60;26.20;;;;;7.57;60.90;98357.28;4936349;28;8869;-77
2022/12/15 01:22:47;;;;;;;;;25.80;24.00;;;;;7.66;60.58;98356.38;4935626;28;8862;-79
2022/12/15 01:25:17;;;;;;;;;33.60;29.20;;;;;7.47;61.04;98347.88;4935585;28;8909;-78
2022/12/15 01:27:46;;;;;;;;;28.60;26.60;;;;;7.53;60.74;98340.03;5010595;28;8889;-79
2022/12/15 01:30:18;;;;;;;;;30.75;27.75;;;;;7.41;61.09;98340.13;5010065;28;8858;-78
2022/12/15 01:32:47;;;;;;;;;28.00;27.20;;;;;7.39;60.65;98321.09;5010244;28;8857;-78
2022/12/15 01:35:17;;;;;;;;;27.40;25.20;;;;;7.40;61.56;98328.88;5026355;28;8944;-79
2022/12/15 01:37:46;;;;;;;;;29.80;25.20;;;;;7.50;61.30;98326.22;5011260;28;8839;-77
2022/12/15 01:43:12;;;;;;;;;26.20;23.00;;;;;7.29;61.65;98328.09;4992839;28;8862;-78
2022/12/15 01:45:55;;;;;;;;;30.60;26.00;;;;;7.33;61.79;98324.59;4992679;28;8874;-77
2022/12/15 01:48:28;;;;;;;;;26.00;24.00;;;;;7.30;61.50;98336.75;5011037;28;8858;-77
2022/12/15 01:51:03;;;;;;;;;23.60;21.80;;;;;7.32;61.46;98335.00;5009368;28;8861;-79
2022/12/15 01:53:37;;;;;;;;;27.40;25.40;;;;;7.18;62.01;98329.91;5026276;28;8845;-77
2022/12/15 01:56:08;;;;;;;;;24.60;23.40;;;;;7.16;61.50;98329.91;4992188;28;8885;-77
2022/12/15 01:58:40;;;;;;;;;26.80;26.80;;;;;7.14;61.74;98321.28;4992616;28;8822;-78
2022/12/15 02:01:09;;;;;;;;;29.60;26.80;;;;;6.93;62.72;98334.38;4960084;28;8870;-77
2022/12/15 02:03:39;;;;;;;;;30.60;25.80;;;;;7.17;62.14;98348.94;5010552;28;8847;-77
2022/12/15 02:06:11;;;;;;;;;28.60;25.20;;;;;7.02;62.28;98337.78;5028758;28;8879;-79
2022/12/15 02:08:41;;;;;;;;;34.80;28.80;;;;;7.01;61.96;98332.59;5029123;28;8839;-78
2022/12/15 02:11:45;;;;;;;;;31.20;27.20;;;;;6.96;62.07;98330.06;5029940;28;9117;-78
2022/12/15 02:14:21;;;;;;;;;24.20;22.00;;;;;6.89;62.36;98343.91;5011065;28;8863;-78
2022/12/15 02:17:01;;;;;;;;;27.40;25.60;;;;;6.97;62.30;98352.50;5028528;28;9045;-77
2022/12/15 02:19:59;;;;;;;;;22.60;17.40;;;;;7.09;61.89;98361.94;5029742;28;8863;-79
2022/12/15 02:22:43;;;;;;;;;31.40;28.40;;;;;7.06;61.45;98363.69;5011895;28;9002;-79
2022/12/15 02:25:42;;;;;;;;;29.20;24.40;;;;;7.07;61.74;98361.09;5008522;28;8873;-80
2022/12/15 02:28:15;;;;;;;;;23.40;22.40;;;;;6.92;61.68;98336.13;4971451;28;8880;-78
2022/12/15 02:33:45;;;;;;;;;31.00;27.00;;;;;6.85;62.07;98321.47;4974502;28;8878;-79
2022/12/15 02:36:24;;;;;;;;;28.40;22.60;;;;;6.92;61.95;98314.50;4974896;28;8862;-79
2022/12/15 02:38:53;;;;;;;;;25.60;24.40;;;;;6.79;62.67;98331.88;4960234;28;8879;-78
2022/12/15 02:41:38;;;;;;;;;27.20;24.80;;;;;6.65;62.74;98331.91;4971668;28;8853;-80
2022/12/15 02:44:12;;;;;;;;;28.80;23.60;;;;;6.55;63.61;98331.09;4955134;28;8895;-80
2022/12/15 02:46:56;;;;;;;;;24.20;23.00;;;;;6.41;63.53;98328.56;4969347;28;8914;-81
2022/12/15 02:49:35;;;;;;;;;28.60;26.40;;;;;6.17;64.61;98339.00;5006505;28;8862;-80
2022/12/15 02:52:17;;;;;;;;;31.25;28.00;;;;;6.27;64.67;98347.59;4980693;28;8951;-79
2022/12/15 02:54:58;;;;;;;;;29.60;22.80;;;;;6.37;64.34;98338.94;4955033;28;8987;-80
2022/12/15 02:57:38;;;;;;;;;32.25;28.75;;;;;6.42;64.28;98339.78;4987254;28;9603;-79
2022/12/15 03:00:09;;;;;;;;;26.75;25.00;;;;;6.29;64.37;98349.31;4964228;28;8903;-79
2022/12/15 03:02:44;;;;;;;;;25.60;24.60;;;;;6.40;64.12;98360.50;4934919;28;8848;-79
2022/12/15 03:05:15;;;;;;;;;28.50;26.75;;;;;6.35;64.07;98362.25;4998892;28;8882;-79
2022/12/15 03:07:44;;;;;;;;;33.00;25.00;;;;;6.45;63.36;98355.31;5008339;28;8873;-79
2022/12/15 03:10:18;;;;;;;;;30.75;26.50;;;;;6.53;63.07;98358.75;4975897;28;8897;-76
2022/12/15 03:12:49;;;;;;;;;26.75;26.25;;;;;6.48;63.17;98357.03;5006517;28;9825;-77
2022/12/15 03:15:18;;;;;;;;;34.75;31.75;;;;;6.44;63.92;98357.03;4974014;28;8866;-77
2022/12/15 03:17:48;;;;;;;;;30.20;25.40;;;;;6.56;62.95;98358.75;4985617;28;9614;-77
2022/12/15 03:20:16;;;;;;;;;25.20;25.20;;;;;6.49;62.92;98366.53;4986663;28;8860;-77
2022/12/15 03:22:45;;;;;;;;;27.80;26.20;;;;;6.54;62.60;98373.44;4986314;28;8907;-77
2022/12/15 03:25:14;;;;;;;;;28.25;28.25;;;;;6.47;62.77;98370.88;4975614;28;8972;-78
2022/12/15 03:27:43;;;;;;;;;26.60;25.80;;;;;6.44;62.83;98362.22;4973405;28;9704;-76
2022/12/15 03:30:12;;;;;;;;;29.75;27.00;;;;;6.56;62.67;98356.16;4956709;28;8872;-76
2022/12/15 03:32:41;;;;;;;;;24.20;21.40;;;;;6.46;62.99;98362.22;4989472;28;8844;-76
2022/12/15 03:35:12;;;;;;;;;22.20;22.20;;;;;6.45;62.78;98376.03;4972505;28;8870;-77
2022/12/15 03:37:41;;;;;;;;;28.20;24.40;;;;;6.52;62.37;98371.69;4989325;28;8878;-80
2022/12/15 03:40:12;;;;;;;;;29.80;25.20;;;;;6.43;61.83;98383.81;4989506;28;8854;-77
2022/12/15 03:42:50;;;;;;;;;23.80;19.80;;;;;6.60;61.99;98383.75;5005537;28;8885;-77
2022/12/15 03:45:20;;;;;;;;;24.80;22.60;;;;;6.57;60.99;98377.72;5025247;28;8864;-77
2022/12/15 03:47:49;;;;;;;;;24.60;20.80;;;;;6.42;61.48;98396.75;4982575;28;8990;-76
2022/12/15 03:50:21;;;;;;;;;23.80;21.20;;;;;6.42;61.83;98404.53;5027189;28;8860;-77
2022/12/15 03:52:52;;;;;;;;;23.40;20.20;;;;;6.63;61.03;98422.63;5004935;28;8850;-76
2022/12/15 03:55:20;;;;;;;;;22.40;20.60;;;;;6.64;60.42;98424.31;4989304;28;8870;-77
2022/12/15 03:57:50;;;;;;;;;21.80;21.80;;;;;6.66;60.98;98431.25;4989384;28;8899;-76
2022/12/15 04:00:21;;;;;;;;;26.20;22.40;;;;;6.74;60.14;98435.50;5005347;28;8875;-77
2022/12/15 04:02:51;;;;;;;;;21.40;20.40;;;;;6.76;60.70;98428.59;5005465;28;8874;-78
2022/12/15 04:05:24;;;;;;;;;19.00;18.60;;;;;6.81;60.01;98420.81;5005682;28;8937;-77
2022/12/15 04:07:54;;;;;;;;;22.20;21.20;;;;;6.79;60.68;98432.91;4965703;28;8860;-77
2022/12/15 04:10:23;;;;;;;;;24.60;19.20;;;;;6.77;60.00;98442.44;4943806;29;8935;-78
2022/12/15 04:12:59;;;;;;;;;21.60;21.20;;;;;6.74;60.24;98451.06;4928387;29;9636;-77
2022/12/15 04:15:29;;;;;;;;;23.60;19.40;;;;;6.68;60.65;98453.66;4927651;29;9031;-77
2022/12/15 04:17:58;;;;;;;;;22.20;20.00;;;;;6.72;60.26;98449.34;4928023;29;8881;-78
2022/12/15 04:20:28;;;;;;;;;25.60;19.40;;;;;6.85;60.61;98451.03;4956058;28;8890;-78
2022/12/15 04:22:57;;;;;;;;;29.20;27.00;;;;;6.88;59.88;98444.97;4967252;28;8873;-78
2022/12/15 05:32:15;;;;;;;;;28.75;25.75;;;;;6.80;59.47;98521.00;5009575;28;8881;-77
2022/12/15 05:34:43;;;;;;;;;28.00;24.60;;;;;6.97;59.90;98520.94;5025500;28;8873;-78
2022/12/15 05:37:12;;;;;;;;;24.80;22.80;;;;;7.01;59.57;98521.81;4993049;28;8866;-76
2022/12/15 05:39:41;;;;;;;;;24.00;22.00;;;;;6.84;59.75;98521.84;5010860;28;8826;-76
2022/12/15 05:42:10;;;;;;;;;22.80;19.40;;;;;6.98;59.48;98517.50;4975450;28;8904;-77
2022/12/15 05:44:39;;;;;;;;;21.80;20.20;;;;;6.86;59.41;98525.28;4988272;28;8862;-77
2022/12/15 05:47:08;;;;;;;;;26.80;23.00;;;;;6.87;60.13;98523.59;5026038;28;8884;-77
2022/12/15 05:49:37;;;;;;;;;25.60;23.80;;;;;6.83;60.03;98526.19;5047121;28;8869;-76
2022/12/15 05:52:06;;;;;;;;;24.60;20.00;;;;;6.89;60.01;98522.72;5013186;28;8862;-78
2022/12/15 05:54:35;;;;;;;;;23.00;21.40;;;;;6.90;59.42;98531.34;4993702;28;8854;-79
2022/12/15 05:57:03;;;;;;;;;23.40;22.80;;;;;6.79;59.73;98539.16;5009304;28;8936;-79
2022/12/15 05:59:34;;;;;;;;;30.00;26.75;;;;;6.92;59.76;98548.63;4993340;28;9632;-78
2022/12/15 06:02:02;;;;;;;;;23.00;20.60;;;;;7.02;59.26;98550.31;5024097;28;9676;-80
2022/12/15 06:04:31;;;;;;;;;20.60;20.20;;;;;7.13;58.93;98554.63;5031482;28;8846;-79
2022/12/15 06:06:59;;;;;;;;;24.00;22.00;;;;;7.21;59.29;98571.03;5032315;28;9058;-79
2022/12/15 06:09:28;;;;;;;;;29.75;24.50;;;;;7.24;58.59;98581.41;5030867;28;8862;-77
2022/12/15 06:11:57;;;;;;;;;26.50;25.75;;;;;7.20;59.28;98574.47;5012353;28;8963;-79
2022/12/15 06:14:26;;;;;;;;;26.20;25.60;;;;;7.40;58.43;98571.81;5015777;28;8999;-80
2022/12/15 06:16:55;;;;;;;;;18.80;16.20;;;;;7.34;58.40;98577.03;5014399;28;8862;-78
2022/12/15 06:19:24;;;;;;;;;25.60;22.20;;;;;7.46;57.51;98583.91;5032456;28;8842;-78
2022/12/15 06:21:53;;;;;;;;;22.40;20.80;;;;;7.30;58.36;98585.69;4974197;28;8854;-81
2022/12/15 06:24:22;;;;;;;;;26.40;22.60;;;;;7.37;57.95;98598.63;4973767;28;8830;-80
2022/12/15 06:26:50;;;;;;;;;23.00;19.20;;;;;7.31;58.78;98608.16;4991762;28;8854;-77
2022/12/15 06:29:19;;;;;;;;;22.20;21.40;;;;;7.31;58.13;98618.53;4992071;28;8860;-80
2022/12/15 06:31:48;;;;;;;;;18.00;17.80;;;;;7.36;57.86;98614.19;4969150;28;8902;-79
2022/12/15 06:34:18;;;;;;;;;22.80;18.80;;;;;7.38;58.21;98607.28;4987138;28;8965;-79
2022/12/15 06:36:47;;;;;;;;;24.00;23.00;;;;;7.50;57.52;98604.63;4988007;28;8966;-78
2022/12/15 06:39:16;;;;;;;;;29.60;20.20;;;;;7.59;57.82;98604.59;4971342;28;8857;-77
2022/12/15 06:41:45;;;;;;;;;25.40;21.20;;;;;7.68;57.37;98613.22;4968534;28;8951;-79
2022/12/15 06:44:15;;;;;;;;;26.60;21.60;;;;;7.64;57.50;98617.56;4967369;28;8876;-78
2022/12/15 06:46:45;;;;;;;;;26.80;24.00;;;;;7.49;58.06;98615.03;4967647;28;8879;-78
2022/12/15 06:49:14;;;;;;;;;26.20;25.00;;;;;7.60;58.02;98626.25;4982112;28;8883;-80
2022/12/15 06:51:44;;;;;;;;;28.00;27.50;;;;;7.63;58.30;98621.03;4986772;28;8947;-79
2022/12/15 06:54:13;;;;;;;;;32.20;27.60;;;;;7.73;57.48;98627.91;5035659;28;8846;-79
2022/12/15 06:56:42;;;;;;;;;26.80;22.60;;;;;7.80;58.33;98628.72;5007995;28;8866;-80
2022/12/15 06:59:11;;;;;;;;;33.80;28.60;;;;;7.98;57.47;98631.25;5008936;28;8909;-79
2022/12/15 07:01:41;;;;;;;;;23.60;23.60;;;;;8.04;57.30;98624.31;5027377;28;8877;-79
2022/12/15 07:04:11;;;;;;;;;27.60;26.00;;;;;8.18;57.35;98618.19;5014037;28;8950;-79
2022/12/15 07:06:41;;;;;;;;;25.80;22.40;;;;;8.22;56.77;98623.34;5013519;28;8974;-79
2022/12/15 07:09:16;;;;;;;;;33.80;27.20;;;;;8.45;56.47;98628.41;5030099;28;9001;-79
2022/12/15 07:11:48;;;;;;;;;27.80;26.40;;;;;8.28;56.43;98629.38;5020105;28;8878;-79
2022/12/15 07:14:16;;;;;;;;;30.80;25.40;;;;;8.39;56.65;98629.28;5030708;28;8855;-78
2022/12/15 07:16:45;;;;;;;;;29.20;28.40;;;;;8.54;56.23;98628.34;5045606;28;8916;-78
2022/12/15 07:19:14;;;;;;;;;24.40;23.00;;;;;8.68;56.33;98623.06;4999104;28;8870;-80
2022/12/15 07:21:42;;;;;;;;;29.75;24.00;;;;;8.82;56.16;98633.34;5019530;28;8863;-78
2022/12/15 07:24:13;;;;;;;;;35.25;27.75;;;;;8.98;55.88;98634.94;5028435;28;8855;-81
2022/12/15 07:26:43;;;;;;;;;25.00;22.60;;;;;9.07;55.55;98642.63;5044475;28;8871;-82
2022/12/15 07:29:13;;;;;;;;;30.60;27.00;;;;;9.15;55.91;98642.59;5015885;28;9634;-81
2022/12/15 07:31:50;;;;;;;;;23.60;21.00;;;;;9.07;55.91;98641.78;5008379;28;8888;-80
2022/12/15 07:34:19;;;;;;;;;33.20;25.40;;;;;9.02;55.91;98648.75;5024841;28;8862;-81
2022/12/15 07:36:47;;;;;;;;;30.20;26.20;;;;;9.06;55.82;98643.53;4974815;28;8885;-78
2022/12/15 07:39:21;;;;;;;;;27.60;27.00;;;;;9.20;55.29;98640.78;5001425;28;8866;-79
2022/12/15 07:41:50;;;;;;;;;31.20;29.00;;;;;9.21;55.16;98652.94;5009793;28;8870;-79
2022/12/15 07:44:19;;;;;;;;;34.80;31.80;;;;;9.29;55.42;98653.72;5010348;28;8879;-80
2022/12/15 07:46:48;;;;;;;;;37.75;30.25;;;;;9.31;55.46;98656.31;5009956;28;8859;-81
2022/12/15 07:49:17;;;;;;;;;29.20;29.20;;;;;9.27;55.24;98657.22;5014013;28;8886;-81
2022/12/15 07:51:46;;;;;;;;;30.00;28.00;;;;;9.37;55.07;98666.63;5022808;28;8968;-79
2022/12/15 07:54:16;;;;;;;;;32.60;29.60;;;;;9.41;55.20;98665.72;4990063;28;8862;-79
2022/12/15 07:56:46;;;;;;;;;29.25;22.75;;;;;9.46;55.32;98670.91;5023341;28;8951;-81
2022/12/15 07:59:18;;;;;;;;;36.00;34.25;;;;;9.47;55.28;98665.69;5023799;28;9662;-79
2022/12/15 08:01:48;;;;;;;;;34.25;34.25;;;;;9.66;55.29;98668.97;4991089;28;8870;-81
2022/12/15 08:04:17;;;;;;;;;35.80;30.60;;;;;9.80;54.70;98667.94;4942278;28;8870;-79
2022/12/15 08:06:46;;;;;;;;;32.50;29.00;;;;;9.87;54.49;98674.81;5025283;28;8859;-80
2022/12/15 08:09:15;;;;;;;;;38.40;36.00;;;;;9.85;54.63;98666.13;5025711;28;8852;-81
2022/12/15 08:11:45;;;;;;;;;28.50;26.50;;;;;9.66;55.04;98668.97;4992538;28;8902;-79
2022/12/15 08:14:14;;;;;;;;;33.25;33.25;;;;;9.89;54.88;98670.44;5025764;28;8844;-80
2022/12/15 08:16:45;;;;;;;;;35.00;31.25;;;;;10.07;54.49;98675.41;5025288;28;8852;-80
2022/12/15 08:19:16;;;;;;;;;35.20;33.20;;;;;10.15;53.96;98685.72;5025603;28;8883;-82
2022/12/15 08:21:46;;;;;;;;;28.80;28.80;;;;;10.32;53.70;98689.00;5041658;28;8876;-79
2022/12/15 08:24:16;;;;;;;;;28.40;26.40;;;;;10.40;53.39;98693.28;5025699;28;8832;-79
2022/12/15 08:26:46;;;;;;;;;35.80;32.80;;;;;10.52;53.19;98693.09;4992188;28;8856;-80
2022/12/15 08:29:18;;;;;;;;;24.40;24.40;;;;;10.67;52.62;98694.63;4992884;28;8890;-80
2022/12/15 08:32:07;;;;;;;;;24.00;21.80;;;;;10.70;52.10;98698.03;5009763;28;8984;-81
2022/12/15 08:34:36;;;;;;;;;31.00;26.60;;;;;10.79;52.78;98706.59;5025405;28;8864;-79
2022/12/15 08:37:04;;;;;;;;;28.00;27.80;;;;;10.71;52.60;98706.72;5023218;28;9001;-80
2022/12/15 08:39:33;;;;;;;;;32.80;28.40;;;;;10.81;52.23;98715.25;5007196;28;9648;-77
2022/12/15 08:42:03;;;;;;;;;29.60;28.60;;;;;10.84;52.65;98718.69;5006865;28;9777;-78
2022/12/15 08:44:32;;;;;;;;;33.40;27.20;;;;;10.85;52.72;98720.44;5023229;28;8890;-78
2022/12/15 08:47:01;;;;;;;;;35.40;32.20;;;;;10.98;53.16;98710.63;4982394;28;8867;-79
2022/12/15 08:49:30;;;;;;;;;30.00;28.80;;;;;11.13;52.98;98712.16;4950875;28;8895;-80
2022/12/15 08:51:58;;;;;;;;;33.60;31.40;;;;;11.19;52.40;98708.56;4969437;28;8971;-82
2022/12/15 08:54:27;;;;;;;;;38.40;30.20;;;;;11.35;51.96;98711.81;4954045;28;8876;-82
2022/12/15 08:56:55;;;;;;;;;32.00;27.75;;;;;11.39;51.98;98718.69;4973580;28;8852;-79
2022/12/15 08:59:26;;;;;;;;;35.60;34.00;;;;;11.56;52.23;98718.41;4941440;28;8919;-80
2022/12/15 09:01:55;;;;;;;;;18.20;14.40;;;;;11.63;51.37;98726.09;4957111;28;10102;-80
2022/12/15 09:04:24;;;;;;;;;37.25;35.00;;;;;11.65;51.30;98731.28;4989881;28;8865;-80
2022/12/15 09:06:53;;;;;;;;;33.75;32.75;;;;;11.67;51.54;98740.81;4973578;28;9713;-80
2022/12/15 09:09:22;;;;;;;;;30.60;30.00;;;;;11.76;51.66;98741.53;4991133;28;8930;-80
2022/12/15 09:11:51;;;;;;;;;40.00;35.33;;;;;11.87;50.73;98735.22;5003397;28;8909;-81
2022/12/15 09:14:20;;;;;;;;;38.50;37.75;;;;;11.98;51.07;98721.97;5030152;28;8874;-80
2022/12/15 09:16:58;;;;;;;;;39.25;35.00;;;;;11.92;51.60;98716.88;5014072;28;8882;-78
2022/12/15 09:19:27;;;;;;;;;39.75;36.00;;;;;11.91;51.46;98717.78;5013805;28;8977;-79
2022/12/15 09:21:55;;;;;;;;;40.50;36.75;;;;;11.87;51.26;98716.06;5012896;28;8863;-80
2022/12/15 09:24:24;;;;;;;;;37.00;35.25;;;;;11.90;52.43;98708.22;5045141;28;8878;-81
2022/12/15 09:27:03;;;;;;;;;37.50;36.75;;;;;11.90;52.04;98710.81;5012253;28;8874;-79
2022/12/15 09:29:33;;;;;;;;;33.25;32.25;;;;;11.91;52.63;98707.34;4997662;28;8858;-79
2022/12/15 09:32:03;;;;;;;;;37.75;35.50;;;;;11.94;52.37;98704.63;5017150;28;9643;-80
2022/12/15 09:34:41;;;;;;;;;38.00;36.60;;;;;11.98;51.94;98703.69;5032223;28;8869;-79
2022/12/15 09:37:10;;;;;;;;;36.00;33.20;;;;;12.11;51.98;98695.63;5043089;28;8877;-80
2022/12/15 09:39:39;;;;;;;;;35.75;33.50;;;;;12.10;51.84;98686.91;4994076;28;8881;-78
2022/12/15 09:42:23;;;;;;;;;28.80;27.60;;;;;12.22;51.58;98697.09;4993861;28;9000;-81
2022/12/15 09:45:01;;;;;;;;;34.40;32.80;;;;;12.30;52.13;98710.00;4993598;28;8884;-79
2022/12/15 09:47:39;;;;;;;;;36.75;34.00;;;;;12.46;51.92;98700.09;5009484;28;8866;-81
2022/12/15 09:50:12;;;;;;;;;36.50;35.00;;;;;12.30;51.89;98707.41;4966711;28;8890;-80
2022/12/15 09:52:47;;;;;;;;;38.00;35.50;;;;;12.46;51.95;98697.50;5008511;28;8863;-81
2022/12/15 09:55:20;;;;;;;;;32.80;32.00;;;;;12.47;51.93;98700.03;5040712;28;8872;-81
2022/12/15 09:57:53;;;;;;;;;40.20;37.00;;;;;12.62;51.42;98692.75;5028132;28;8893;-81
2022/12/15 10:00:25;;;;;;;;;34.20;33.60;;;;;12.68;51.65;98703.06;5043585;28;8879;-79
2022/12/15 10:03:29;;;;;;;;;32.20;30.40;;;;;12.91;51.23;98701.69;5009533;28;9045;-80
2022/12/15 10:06:09;;;;;;;;;38.60;35.40;;;;;12.98;51.30;98692.81;5008836;28;9451;-79
2022/12/15 10:08:53;;;;;;;;;41.00;36.25;;;;;12.96;50.63;98699.81;5025854;28;8877;-80
2022/12/15 10:11:35;;;;;;;;;41.75;37.50;;;;;13.09;51.21;98696.03;4976027;28;8854;-79
2022/12/15 10:14:15;;;;;;;;;35.00;33.20;;;;;13.02;50.78;98694.44;5009453;28;9612;-80
2022/12/15 10:16:55;;;;;;;;;40.00;36.25;;;;;13.11;50.65;98691.59;5009367;28;8873;-79
2022/12/15 10:19:31;;;;;;;;;35.80;33.00;;;;;13.12;50.72;98688.09;5009246;28;8866;-81
2022/12/15 10:22:00;;;;;;;;;34.80;30.00;;;;;13.10;50.54;98695.13;5025981;28;8866;-79
2022/12/15 10:24:32;;;;;;;;;38.20;32.00;;;;;13.21;50.50;98680.03;5041855;28;8885;-79
2022/12/15 10:27:34;;;;;;;;;35.00;32.40;;;;;13.39;50.46;98681.31;5009363;28;8854;-80
2022/12/15 10:30:05;;;;;;;;;33.25;32.50;;;;;13.33;50.71;98676.25;4992539;28;8866;-80
2022/12/15 10:32:45;;;;;;;;;35.00;32.50;;;;;13.44;50.54;98668.97;5010584;28;8848;-79
2022/12/15 10:35:23;;;;;;;;;39.50;34.25;;;;;13.46;50.43;98668.94;4994693;28;8960;-80
2022/12/15 10:37:51;;;;;;;;;46.00;37.25;;;;;13.58;50.07;98658.13;5014500;28;8867;-81
2022/12/15 10:40:44;;;;;;;;;34.25;31.25;;;;;13.76;50.02;98655.91;5013980;28;8860;-80
2022/12/15 10:43:27;;;;;;;;;38.25;35.25;;;;;13.80;50.35;98663.66;5013983;28;8911;-81
2022/12/15 10:46:07;;;;;;;;;38.80;36.20;;;;;13.91;50.03;98659.84;5030908;28;8944;-82
2022/12/15 10:48:36;;;;;;;;;41.25;37.50;;;;;13.94;49.81;98647.53;5030502;28;8883;-80
2022/12/15 10:51:16;;;;;;;;;34.20;31.40;;;;;14.10;49.60;98658.44;5013787;28;8849;-80
2022/12/15 10:53:47;;;;;;;;;34.75;32.75;;;;;14.14;49.47;98659.19;5014135;28;8853;-81
2022/12/15 10:56:24;;;;;;;;;32.40;31.80;;;;;14.26;49.08;98652.72;5016667;28;8949;-81
2022/12/15 10:59:03;;;;;;;;;28.60;28.60;;;;;14.28;49.02;98664.88;5014036;28;9725;-80
2022/12/15 11:01:34;;;;;;;;;27.40;26.20;;;;;14.46;48.85;98667.84;4997222;28;8871;-80
2022/12/15 11:04:04;;;;;;;;;32.20;30.80;;;;;14.51;48.54;98671.19;5013694;28;8951;-81
2022/12/15 11:06:35;;;;;;;;;24.00;24.00;;;;;14.66;48.18;98668.13;5013485;28;8869;-79
2022/12/15 11:09:21;;;;;;;;;28.60;25.00;;;;;14.79;47.98;98663.38;5026858;28;8949;-81
2022/12/15 11:14:44;;;;;;;;;25.00;24.20;;;;;14.70;48.17;98667.13;5016696;28;8862;-80
2022/12/15 11:17:17;;;;;;;;;15.60;13.00;;;;;14.65;48.67;98658.56;5026887;28;9633;-81
2022/12/15 11:19:54;;;;;;;;;32.00;30.60;;;;;14.75;48.25;98646.84;4993334;28;8867;-79
2022/12/15 11:22:40;;;;;;;;;29.60;27.00;;;;;14.81;48.40;98651.03;5026597;28;8874;-81
2022/12/15 11:25:21;;;;;;;;;24.60;24.00;;;;;14.85;48.21;98649.19;5026424;28;8848;-81
2022/12/15 11:27:53;;;;;;;;;31.20;29.80;;;;;14.81;48.23;98651.03;5026591;28;9609;-80
2022/12/15 11:30:26;;;;;;;;;36.60;32.00;;;;;14.90;48.23;98644.66;5009660;28;9762;-80
2022/12/15 11:32:58;;;;;;;;;34.40;34.00;;;;;14.88;48.11;98646.47;5009785;28;8898;-80
2022/12/15 11:35:33;;;;;;;;;35.40;30.20;;;;;14.85;48.47;98647.41;5009887;28;8961;-81
2022/12/15 11:38:13;;;;;;;;;31.40;29.80;;;;;14.89;48.41;98648.16;5026109;28;8974;-80
2022/12/15 11:40:43;;;;;;;;;30.00;28.80;;;;;14.89;48.35;98646.41;5007245;28;8866;-79
2022/12/15 11:43:48;;;;;;;;;31.60;30.60;;;;;15.06;48.26;98645.00;5023776;28;8870;-79
2022/12/15 11:46:23;;;;;;;;;30.60;27.00;;;;;14.88;48.46;98642.06;4897512;29;8874;-80
2022/12/15 11:49:14;;;;;;;;;23.80;21.80;;;;;14.94;48.67;98643.63;4913247;29;8862;-79
2022/12/15 11:51:51;;;;;;;;;30.20;29.00;;;;;14.86;48.50;98657.00;4913752;29;8892;-83
2022/12/15 11:54:28;;;;;;;;;24.60;24.60;;;;;14.84;48.64;98656.22;4913681;29;8894;-81
2022/12/15 11:57:12;;;;;;;;;24.60;24.60;;;;;14.79;48.74;98656.34;4913138;29;8882;-80
2022/12/15 11:59:58;;;;;;;;;27.60;26.60;;;;;15.01;48.85;98650.41;4898261;29;8866;-78
2022/12/15 12:02:51;;;;;;;;;32.40;30.00;;;;;15.07;48.56;98658.06;4915020;28;8863;-81
2022/12/15 12:05:33;;;;;;;;;25.00;24.00;;;;;15.04;49.03;98652.91;4928984;29;8872;-81
2022/12/15 12:08:15;;;;;;;;;29.60;27.00;;;;;15.08;48.75;98653.66;4929159;29;8864;-80
2022/12/15 12:10:56;;;;;;;;;28.80;25.60;;;;;15.11;48.68;98649.19;4913375;29;8872;-81
2022/12/15 12:13:34;;;;;;;;;25.20;24.40;;;;;14.97;48.58;98660.16;4929688;29;8880;-80
2022/12/15 12:16:11;;;;;;;;;30.40;24.80;;;;;15.05;48.67;98649.41;4897503;29;8844;-83
2022/12/15 12:18:49;;;;;;;;;24.40;23.00;;;;;15.07;48.57;98654.59;4928318;29;8860;-80
2022/12/15 12:21:24;;;;;;;;;26.20;26.20;;;;;14.95;48.49;98655.84;4928203;29;8884;-82
2022/12/15 12:24:00;;;;;;;;;26.20;26.20;;;;;15.01;49.11;98674.03;4990272;28;8922;-82
2022/12/15 12:26:38;;;;;;;;;25.20;25.00;;;;;15.13;48.51;98670.16;4992909;28;8961;-81
2022/12/15 12:29:15;;;;;;;;;25.60;25.20;;;;;15.16;48.53;98688.41;5009181;28;8844;-81
2022/12/15 12:31:55;;;;;;;;;25.40;25.20;;;;;15.12;48.71;98678.91;4993439;28;8855;-80
2022/12/15 12:34:42;;;;;;;;;33.40;31.80;;;;;15.18;48.52;98663.81;5009568;28;8851;-79
2022/12/15 12:37:20;;;;;;;;;39.20;34.00;;;;;14.97;49.08;98647.03;4977109;28;8898;-80
2022/12/15 12:39:52;;;;;;;;;30.00;28.40;;;;;14.89;49.27;98650.78;4977600;28;9564;-80
2022/12/15 12:42:29;;;;;;;;;26.60;26.20;;;;;15.00;49.36;98657.41;4945740;28;8866;-83
2022/12/15 12:45:02;;;;;;;;;30.20;29.00;;;;;14.98;49.17;98658.38;4996537;28;8858;-80
2022/12/15 12:47:35;;;;;;;;;26.20;25.20;;;;;15.08;49.04;98646.66;4993999;28;8858;-81
2022/12/15 12:50:14;;;;;;;;;25.40;24.40;;;;;15.01;49.36;98651.25;4993677;28;8896;-81
2022/12/15 12:52:50;;;;;;;;;25.00;22.80;;;;;15.14;49.00;98664.84;4977276;28;8866;-81
2022/12/15 12:55:34;;;;;;;;;30.20;29.20;;;;;15.23;48.70;98671.53;4978866;28;9571;-81
2022/12/15 12:58:24;;;;;;;;;28.00;25.00;;;;;15.15;48.93;98677.06;5009612;28;8980;-80
2022/12/15 13:01:06;;;;;;;;;33.20;30.20;;;;;15.36;48.65;98666.72;4992792;28;8875;-80
2022/12/15 13:03:39;;;;;;;;;27.80;27.80;;;;;15.20;48.95;98669.88;4979470;28;9671;-79
2022/12/15 13:06:22;;;;;;;;;22.40;21.20;;;;;15.39;48.68;98672.75;4994797;28;8851;-80
2022/12/15 13:08:54;;;;;;;;;24.60;22.80;;;;;15.01;49.41;98663.53;4993782;28;8873;-80
2022/12/15 13:12:00;;;;;;;;;24.80;24.20;;;;;15.38;48.82;98660.50;5010095;28;8956;-80
2022/12/15 13:14:53;;;;;;;;;25.40;25.20;;;;;15.32;48.86;98675.63;5010503;28;8928;-81
2022/12/15 13:17:28;;;;;;;;;31.20;27.40;;;;;15.27;48.93;98674.91;5029826;28;8864;-80
2022/12/15 13:20:31;;;;;;;;;31.40;30.00;;;;;15.34;48.61;98672.03;5000648;28;8856;-80
2022/12/15 13:23:50;;;;;;;;;30.00;26.80;;;;;15.24;49.19;98659.28;4980899;28;8843;-81
2022/12/15 13:26:19;;;;;;;;;26.40;23.60;;;;;15.07;49.43;98651.97;4923475;28;8894;-80
2022/12/15 13:28:52;;;;;;;;;26.80;26.00;;;;;15.09;49.50;98655.41;4924847;28;8870;-82
2022/12/15 13:31:27;;;;;;;;;33.20;27.40;;;;;15.16;49.64;98668.28;4940125;28;8939;-80
2022/12/15 13:34:05;;;;;;;;;32.40;29.00;;;;;15.21;49.76;98674.22;4991172;28;8870;-80
2022/12/15 13:37:01;;;;;;;;;31.40;30.40;;;;;15.48;48.71;98674.22;4976670;28;8899;-81
2022/12/15 13:39:58;;;;;;;;;35.80;34.20;;;;;15.47;48.80;98683.00;4963036;28;8898;-80
2022/12/15 13:42:39;;;;;;;;;41.75;35.50;;;;;15.57;48.84;98684.38;4939982;28;8942;-81
2022/12/15 13:45:41;;;;;;;;;39.25;34.50;;;;;15.62;48.77;98686.00;4942473;28;8855;-80
2022/12/15 13:48:23;;;;;;;;;33.80;31.00;;;;;15.68;48.50;98685.78;4973375;28;8907;-80
2022/12/15 13:51:02;;;;;;;;;39.20;32.80;;;;;15.68;48.62;98696.31;4970799;28;8873;-79
2022/12/15 13:53:40;;;;;;;;;25.80;22.80;;;;;15.61;48.21;98693.00;4974815;28;8848;-81
2022/12/15 13:56:45;;;;;;;;;33.80;32.40;;;;;15.80;48.19;98693.25;4972873;28;8852;-81
2022/12/15 13:59:28;;;;;;;;;34.40;32.20;;;;;15.69;48.21;98700.63;4893528;29;8889;-81
2022/12/15 14:01:57;;;;;;;;;25.60;23.20;;;;;15.60;48.44;98702.69;4893945;29;8870;-81
2022/12/15 14:04:27;;;;;;;;;34.60;32.00;;;;;15.64;48.46;98700.81;4931597;28;8901;-79
2022/12/15 14:07:00;;;;;;;;;28.00;25.60;;;;;15.65;48.21;98701.66;4936390;28;8862;-79
2022/12/15 14:09:31;;;;;;;;;33.75;32.00;;;;;15.62;48.14;98702.63;4934425;28;8916;-83
2022/12/15 14:12:02;;;;;;;;;32.60;31.60;;;;;15.61;48.00;98708.78;4934599;28;8882;-80
2022/12/15 14:14:35;;;;;;;;;37.40;34.40;;;;;15.60;48.25;98709.72;4950674;28;8882;-79
2022/12/15 14:17:08;;;;;;;;;34.40;32.80;;;;;15.54;48.61;98704.69;4950549;28;8908;-80
2022/12/15 14:19:40;;;;;;;;;34.25;32.00;;;;;15.54;48.40;98699.41;4950819;28;8908;-80
2022/12/15 14:22:25;;;;;;;;;37.75;34.75;;;;;15.49;48.53;98706.59;4934120;28;9650;-81
2022/12/15 14:25:03;;;;;;;;;41.75;36.25;;;;;15.30;48.96;98704.56;4934140;28;8866;-82
2022/12/15 14:27:33;;;;;;;;;39.50;33.75;;;;;15.26;49.12;98715.25;4918123;28;8858;-79